createdAt,value
2022-11-14T00:01:53.526Z,5.05
2022-11-14T00:07:13.939Z,5.00
2022-11-14T00:12:40.932Z,5.01
2022-11-14T00:18:01.549Z,5.00
2022-11-14T00:23:22.023Z,4.94
2022-11-14T00:28:42.490Z,4.93
2022-11-14T00:34:07.895Z,4.93
2022-11-14T00:39:28.261Z,4.88
2022-11-14T00:44:48.695Z,4.86
2022-11-14T00:50:10.074Z,4.82
2022-11-14T00:55:30.619Z,4.84
2022-11-14T01:00:52.187Z,4.88
2022-11-14T01:06:14.044Z,4.88
2022-11-14T01:11:34.167Z,4.84
2022-11-14T01:16:54.720Z,4.78
2022-11-14T01:22:15.155Z,4.74
2022-11-14T01:27:35.766Z,4.69
2022-11-14T01:32:56.218Z,4.67
2022-11-14T01:38:16.421Z,4.67
2022-11-14T01:43:40.465Z,4.64
2022-11-14T01:49:22.336Z,4.63
2022-11-14T01:54:45.835Z,4.61
2022-11-14T02:00:08.437Z,4.61
2022-11-14T02:05:29.938Z,4.58
2022-11-14T02:10:50.261Z,4.57
2022-11-14T02:16:10.811Z,4.55
2022-11-14T02:21:30.937Z,4.52
2022-11-14T02:26:51.462Z,4.48
2022-11-14T02:32:11.873Z,4.43
2022-11-14T02:37:32.103Z,4.38
2022-11-14T02:42:52.771Z,4.35
2022-11-14T02:48:13.224Z,4.38
2022-11-14T02:53:33.939Z,4.36
2022-11-14T02:58:54.071Z,4.34
2022-11-14T03:04:14.695Z,4.34
2022-11-14T03:09:34.977Z,4.36
2022-11-14T03:14:55.567Z,4.35
2022-11-14T03:20:16.102Z,4.37
2022-11-14T03:25:36.331Z,4.39
2022-11-14T03:30:57.431Z,4.45
2022-11-14T03:36:17.654Z,4.49
2022-11-14T03:41:38.423Z,4.50
2022-11-14T03:46:59.117Z,4.55
2022-11-14T03:52:19.672Z,4.59
2022-11-14T03:57:39.920Z,4.59
2022-11-14T04:03:00.542Z,4.61
2022-11-14T04:08:20.842Z,4.62
2022-11-14T04:13:41.213Z,4.62
2022-11-14T04:19:01.486Z,4.59
2022-11-14T04:24:22.089Z,4.57
2022-11-14T04:29:42.676Z,4.57
2022-11-14T04:35:03.258Z,4.59
2022-11-14T04:40:23.713Z,4.62
2022-11-14T04:45:44.075Z,4.62
2022-11-14T04:51:04.343Z,4.62
2022-11-14T04:56:25.619Z,4.65
2022-11-14T05:01:46.022Z,4.63
2022-11-14T05:07:06.641Z,4.57
2022-11-14T05:12:27.201Z,4.55
2022-11-14T05:17:47.720Z,4.55
2022-11-14T05:23:13.931Z,4.50
2022-11-14T05:28:34.679Z,4.44
2022-11-14T05:33:55.058Z,4.41
2022-11-14T05:39:16.401Z,4.42
2022-11-14T05:44:36.626Z,4.39
2022-11-14T05:49:57.140Z,4.35
2022-11-14T05:55:24.223Z,4.37
2022-11-14T06:00:51.990Z,4.38
2022-11-14T06:06:16.347Z,4.38
2022-11-14T06:11:37.076Z,4.40
2022-11-14T06:16:57.754Z,4.41
2022-11-14T06:22:17.909Z,4.42
2022-11-14T06:27:38.122Z,4.42
2022-11-14T06:33:01.677Z,4.44
2022-11-14T06:38:22.242Z,4.49
2022-11-14T06:43:44.069Z,4.51
2022-11-14T06:49:04.326Z,4.56
2022-11-14T06:54:24.654Z,4.66
2022-11-14T06:59:45.261Z,4.71
2022-11-14T07:05:06.058Z,4.78
2022-11-14T07:10:26.120Z,4.85
2022-11-14T07:15:50.273Z,4.95
2022-11-14T07:21:13.443Z,5.03
2022-11-14T07:26:33.833Z,5.09
2022-11-14T07:31:54.108Z,5.17
2022-11-14T07:37:14.244Z,5.20
2022-11-14T07:42:34.776Z,5.20
2022-11-14T07:47:56.159Z,5.25
2022-11-14T07:53:17.943Z,5.33
2022-11-14T07:58:39.352Z,5.40
2022-11-14T08:03:59.500Z,5.48
2022-11-14T08:09:19.936Z,5.55
2022-11-14T08:14:40.447Z,5.64
2022-11-14T08:20:01.258Z,5.74
2022-11-14T08:25:21.508Z,5.82
2022-11-14T08:30:41.955Z,5.95
2022-11-14T08:36:03.461Z,6.03
2022-11-14T08:41:24.181Z,6.10
2022-11-14T08:46:44.403Z,6.20
2022-11-14T08:52:04.855Z,6.32
2022-11-14T08:57:25.063Z,6.51
2022-11-14T09:02:45.712Z,6.68
2022-11-14T09:08:06.580Z,6.82
2022-11-14T09:13:27.700Z,6.99
2022-11-14T09:18:48.193Z,7.10
2022-11-14T09:24:08.838Z,7.15
2022-11-14T09:29:29.153Z,7.26
2022-11-14T09:34:49.574Z,7.47
2022-11-14T09:40:11.664Z,7.61
2022-11-14T09:45:32.715Z,7.67
2022-11-14T09:51:06.165Z,7.74
2022-11-14T09:56:26.914Z,7.88
2022-11-14T10:01:59.466Z,8.01
2022-11-14T10:07:40.546Z,8.14
2022-11-14T10:13:04.119Z,8.19
2022-11-14T10:18:24.289Z,8.21
2022-11-14T10:27:28.324Z,8.47
2022-11-14T10:33:17.013Z,8.52
2022-11-14T10:39:22.116Z,8.59
2022-11-14T10:44:51.166Z,8.52
2022-11-14T10:50:41.100Z,8.45
2022-11-14T10:56:04.775Z,8.58
2022-11-14T11:01:42.219Z,8.61
2022-11-14T11:07:08.470Z,8.58
2022-11-14T11:12:46.443Z,8.59
2022-11-14T11:18:36.713Z,8.59
2022-11-14T11:23:57.757Z,8.51
2022-11-14T11:29:19.955Z,8.50
2022-11-14T11:34:40.646Z,8.51
2022-11-14T11:40:04.552Z,8.57
2022-11-14T11:45:26.147Z,8.63
2022-11-14T11:50:47.227Z,8.65
2022-11-14T11:56:19.673Z,8.63
2022-11-14T12:01:40.658Z,8.63
2022-11-14T12:07:10.860Z,8.73
2022-11-14T12:12:43.564Z,8.87
2022-11-14T12:18:22.581Z,9.03
2022-11-14T12:24:17.540Z,9.06
2022-11-14T12:29:53.343Z,9.05
2022-11-14T12:35:27.398Z,9.01
2022-11-14T12:41:00.424Z,8.94
2022-11-14T12:46:20.986Z,8.90
2022-11-14T12:51:49.010Z,8.82
2022-11-14T12:57:37.640Z,8.72
2022-11-14T13:03:13.243Z,8.64
2022-11-14T13:09:11.306Z,8.59
2022-11-14T13:15:06.748Z,8.63
2022-11-14T13:20:54.429Z,8.68
2022-11-14T13:26:14.831Z,8.59
2022-11-14T13:31:35.035Z,8.48
2022-11-14T13:36:58.630Z,8.38
2022-11-14T13:42:43.964Z,8.27
2022-11-14T13:48:20.155Z,8.17
2022-11-14T13:53:42.022Z,8.09
2022-11-14T13:59:27.750Z,7.97
2022-11-14T14:05:21.224Z,7.80
2022-11-14T14:10:43.306Z,7.69
2022-11-14T14:16:15.533Z,7.55
2022-11-14T14:22:08.587Z,7.37
2022-11-14T14:28:06.282Z,7.21
2022-11-14T14:33:26.991Z,7.09
2022-11-14T14:38:47.934Z,6.98
2022-11-14T14:44:27.321Z,6.85
2022-11-14T14:49:47.911Z,6.72
2022-11-14T14:55:20.131Z,6.63
2022-11-14T15:00:40.564Z,6.56
2022-11-14T15:06:17.893Z,6.57
2022-11-14T15:11:43.793Z,6.63
2022-11-14T15:17:05.093Z,6.59
2022-11-14T15:22:29.353Z,6.51
2022-11-14T15:27:58.941Z,6.43
2022-11-14T15:33:31.174Z,6.38
2022-11-14T15:39:27.114Z,6.36
2022-11-14T15:44:49.162Z,6.30
2022-11-14T15:50:13.064Z,6.24
2022-11-14T15:55:33.605Z,6.23
2022-11-14T16:00:55.748Z,6.24
2022-11-14T16:06:17.129Z,6.23
2022-11-14T16:11:38.012Z,6.20
2022-11-14T16:16:58.868Z,6.16
2022-11-14T16:22:19.608Z,6.14
2022-11-14T16:27:40.392Z,6.09
2022-11-14T16:33:01.001Z,6.05
2022-11-14T16:38:21.670Z,6.02
2022-11-14T16:43:42.366Z,6.02
2022-11-14T16:49:03.185Z,5.98
2022-11-14T16:54:24.666Z,5.96
2022-11-14T16:59:45.518Z,5.90
2022-11-14T17:05:06.358Z,5.82
2022-11-14T17:10:26.686Z,5.77
2022-11-14T17:15:47.154Z,5.74
2022-11-14T17:21:10.572Z,5.74
2022-11-14T17:26:31.316Z,5.73
2022-11-14T17:31:51.987Z,5.70
2022-11-14T17:37:12.611Z,5.64
2022-11-14T17:42:33.247Z,5.58
2022-11-14T17:47:54.104Z,5.54
2022-11-14T17:53:15.207Z,5.48
2022-11-14T17:58:35.783Z,5.41
2022-11-14T18:04:00.402Z,5.36
2022-11-14T18:09:23.726Z,5.30
2022-11-14T18:14:44.609Z,5.26
2022-11-14T18:20:06.078Z,5.21
2022-11-14T18:25:26.479Z,5.18
2022-11-14T18:30:55.667Z,5.16
2022-11-14T18:36:17.347Z,5.13
2022-11-14T18:41:38.127Z,5.13
2022-11-14T18:46:58.991Z,5.08
2022-11-14T18:52:19.841Z,5.05
2022-11-14T18:57:40.520Z,5.06
2022-11-14T19:03:05.812Z,5.02
2022-11-14T19:08:27.334Z,4.98
2022-11-14T19:13:48.051Z,4.91
2022-11-14T19:19:09.401Z,4.93
2022-11-14T19:24:30.134Z,4.96
2022-11-14T19:29:51.000Z,4.94
2022-11-14T19:35:14.805Z,4.91
2022-11-14T19:40:39.753Z,4.91
2022-11-14T19:46:02.903Z,4.92
2022-11-14T19:51:24.608Z,4.94
2022-11-14T19:56:45.243Z,4.93
2022-11-14T20:02:06.116Z,4.93
2022-11-14T20:07:26.800Z,4.90
2022-11-14T20:12:47.305Z,4.94
2022-11-14T20:18:08.078Z,4.95
2022-11-14T20:23:29.348Z,4.95
2022-11-14T20:28:52.896Z,4.98
2022-11-14T20:34:13.770Z,4.98
2022-11-14T20:39:34.448Z,4.96
2022-11-14T20:44:55.048Z,4.99
2022-11-14T20:50:15.530Z,4.96
2022-11-14T20:55:35.662Z,4.97
2022-11-14T21:00:56.069Z,4.98
2022-11-14T21:06:17.168Z,4.98
2022-11-14T21:11:37.744Z,4.91
2022-11-14T21:16:58.457Z,4.84
2022-11-14T21:22:19.575Z,4.74
2022-11-14T21:27:40.150Z,4.71
2022-11-14T21:33:00.760Z,4.73
2022-11-14T21:38:21.640Z,4.78
2022-11-14T21:43:43.772Z,4.79
2022-11-14T21:49:04.484Z,4.78
2022-11-14T21:54:25.155Z,4.74
2022-11-14T21:59:45.953Z,4.71
2022-11-14T22:05:08.038Z,4.70
2022-11-14T22:10:28.482Z,4.71
2022-11-14T22:15:51.263Z,4.74
2022-11-14T22:21:12.181Z,4.73
2022-11-14T22:26:35.413Z,4.77
2022-11-14T22:31:57.534Z,4.74
2022-11-14T22:37:18.153Z,4.69
2022-11-14T22:42:38.759Z,4.63
2022-11-14T22:48:03.387Z,4.62
2022-11-14T22:53:24.044Z,4.63
2022-11-14T22:58:44.722Z,4.61
2022-11-14T23:04:05.666Z,4.61
2022-11-14T23:09:27.257Z,4.62
2022-11-14T23:14:47.931Z,4.62
2022-11-14T23:20:15.104Z,4.61
2022-11-14T23:25:38.007Z,4.60
2022-11-14T23:30:59.679Z,4.56
2022-11-14T23:36:20.317Z,4.52
2022-11-14T23:41:40.801Z,4.46
2022-11-14T23:47:01.764Z,4.46
2022-11-14T23:52:22.287Z,4.49
2022-11-14T23:57:42.973Z,4.47
